createdAt,value
2023-04-09T00:01:07.343Z,15.02
2023-04-09T00:03:34.088Z,15.18
2023-04-09T00:06:00.874Z,15.24
2023-04-09T00:08:27.238Z,14.99
2023-04-09T00:10:54.379Z,15.24
2023-04-09T00:13:35.664Z,15.25
2023-04-09T00:16:05.712Z,15.25
2023-04-09T00:18:32.261Z,15.32
2023-04-09T00:20:58.659Z,15.21
2023-04-09T00:23:25.411Z,15.21
2023-04-09T00:25:51.854Z,15.24
2023-04-09T00:28:18.213Z,15.18
2023-04-09T00:30:44.610Z,15.16
2023-04-09T00:33:11.001Z,15.12
2023-04-09T00:35:37.426Z,15.04
2023-04-09T00:38:03.867Z,14.99
2023-04-09T00:40:30.381Z,14.87
2023-04-09T00:42:56.981Z,14.71
2023-04-09T00:45:23.399Z,14.70
2023-04-09T00:47:50.087Z,14.93
2023-04-09T00:50:16.941Z,14.88
2023-04-09T00:52:43.437Z,14.92
2023-04-09T00:55:10.454Z,14.92
2023-04-09T00:57:37.514Z,14.98
2023-04-09T01:00:04.708Z,14.89
2023-04-09T01:02:31.356Z,14.89
2023-04-09T01:04:58.027Z,14.94
2023-04-09T01:07:39.507Z,14.92
2023-04-09T01:10:15.051Z,15.00
2023-04-09T01:12:51.337Z,14.87
2023-04-09T01:15:26.272Z,14.90
2023-04-09T01:18:12.217Z,15.05
2023-04-09T01:21:15.331Z,15.11
2023-04-09T01:24:07.538Z,15.21
2023-04-09T01:26:52.120Z,15.26
2023-04-09T01:29:20.427Z,15.14
2023-04-09T01:31:47.667Z,15.20
2023-04-09T01:34:14.516Z,15.27
2023-04-09T01:36:41.963Z,15.21
2023-04-09T01:39:08.892Z,15.17
2023-04-09T01:41:35.879Z,15.14
2023-04-09T01:44:03.464Z,15.21
2023-04-09T01:46:30.222Z,15.22
2023-04-09T01:48:57.091Z,15.33
2023-04-09T01:51:23.564Z,15.40
2023-04-09T01:53:49.938Z,15.42
2023-04-09T01:56:16.383Z,15.34
2023-04-09T01:58:42.773Z,15.33
2023-04-09T02:01:29.732Z,15.25
2023-04-09T02:04:10.517Z,15.18
2023-04-09T02:06:44.742Z,15.09
2023-04-09T02:09:12.554Z,15.20
2023-04-09T02:11:41.705Z,15.06
2023-04-09T02:14:09.266Z,14.97
2023-04-09T02:16:36.414Z,15.06
2023-04-09T02:19:02.965Z,15.02
2023-04-09T02:21:29.764Z,15.15
2023-04-09T02:23:56.375Z,15.12
2023-04-09T02:26:23.146Z,15.10
2023-04-09T02:28:49.580Z,14.96
2023-04-09T02:31:16.759Z,15.00
2023-04-09T02:33:43.317Z,15.09
2023-04-09T02:36:13.235Z,15.01
2023-04-09T02:38:42.836Z,15.01
2023-04-09T02:41:09.475Z,14.99
2023-04-09T02:43:35.958Z,15.11
2023-04-09T02:46:02.678Z,15.22
2023-04-09T02:48:29.091Z,15.13
2023-04-09T02:50:55.576Z,15.18
2023-04-09T02:53:22.128Z,15.05
2023-04-09T02:55:48.618Z,15.08
2023-04-09T02:58:15.268Z,14.89
2023-04-09T03:00:41.782Z,14.89
2023-04-09T03:03:08.381Z,15.12
2023-04-09T03:05:36.102Z,15.21
2023-04-09T03:08:02.502Z,15.27
2023-04-09T03:10:28.883Z,15.24
2023-04-09T03:12:55.305Z,15.26
2023-04-09T03:15:21.669Z,15.20
2023-04-09T03:17:48.082Z,15.21
2023-04-09T03:20:14.614Z,15.16
2023-04-09T03:22:41.020Z,15.24
2023-04-09T03:25:07.790Z,15.17
2023-04-09T03:27:34.186Z,15.12
2023-04-09T03:30:00.646Z,15.14
2023-04-09T03:32:27.101Z,15.12
2023-04-09T03:34:53.519Z,15.09
2023-04-09T03:37:19.926Z,15.03
2023-04-09T03:39:46.349Z,15.00
2023-04-09T03:42:12.722Z,14.85
2023-04-09T03:44:39.077Z,14.79
2023-04-09T03:47:05.474Z,14.81
2023-04-09T03:49:31.857Z,14.79
2023-04-09T03:51:58.261Z,14.71
2023-04-09T03:54:24.628Z,14.60
2023-04-09T03:56:51.033Z,14.54
2023-04-09T03:59:17.415Z,14.54
2023-04-09T04:01:44.226Z,14.43
2023-04-09T04:04:10.881Z,14.37
2023-04-09T04:06:37.326Z,14.34
2023-04-09T04:09:03.749Z,14.25
2023-04-09T04:11:30.297Z,14.22
2023-04-09T04:13:56.852Z,14.20
2023-04-09T04:16:23.375Z,14.26
2023-04-09T04:18:50.160Z,14.23
2023-04-09T04:21:17.263Z,14.30
2023-04-09T04:23:43.663Z,14.26
2023-04-09T04:26:10.860Z,14.25
2023-04-09T04:28:40.705Z,14.26
2023-04-09T04:31:11.257Z,14.21
2023-04-09T04:33:38.575Z,14.23
2023-04-09T04:36:10.643Z,14.22
2023-04-09T04:38:37.440Z,14.21
2023-04-09T04:41:04.023Z,14.22
2023-04-09T04:43:30.632Z,14.12
2023-04-09T04:45:57.086Z,13.92
2023-04-09T04:48:23.644Z,13.91
2023-04-09T04:51:00.309Z,13.91
2023-04-09T04:53:27.102Z,13.85
2023-04-09T04:55:53.924Z,13.86
2023-04-09T04:58:20.444Z,13.88
2023-04-09T05:00:47.159Z,13.83
2023-04-09T05:03:14.478Z,13.82
2023-04-09T05:05:41.037Z,13.76
2023-04-09T05:08:07.794Z,13.67
2023-04-09T05:10:34.161Z,13.67
2023-04-09T05:13:00.733Z,13.72
2023-04-09T05:15:27.190Z,13.73
2023-04-09T05:17:54.182Z,13.73
2023-04-09T05:20:20.795Z,13.79
2023-04-09T05:22:47.244Z,13.88
2023-04-09T05:25:16.099Z,13.94
2023-04-09T05:27:42.806Z,13.95
2023-04-09T05:30:09.501Z,14.04
2023-04-09T05:32:36.037Z,13.99
2023-04-09T05:35:02.468Z,14.01
2023-04-09T05:37:28.972Z,14.19
2023-04-09T05:39:56.256Z,14.44
2023-04-09T05:42:22.789Z,14.46
2023-04-09T05:44:49.174Z,14.55
2023-04-09T05:47:15.714Z,14.53
2023-04-09T05:49:42.211Z,14.61
2023-04-09T05:52:08.613Z,14.74
2023-04-09T05:54:35.580Z,14.76
2023-04-09T05:57:02.007Z,14.98
2023-04-09T05:59:28.383Z,15.04
2023-04-09T06:01:54.833Z,15.13
2023-04-09T06:04:21.552Z,15.19
2023-04-09T06:06:48.213Z,15.14
2023-04-09T06:09:14.752Z,15.25
2023-04-09T06:11:41.134Z,15.17
2023-04-09T06:14:07.700Z,15.25
2023-04-09T06:16:34.852Z,15.42
2023-04-09T06:19:01.258Z,15.44
2023-04-09T06:21:27.944Z,15.42
2023-04-09T06:23:54.688Z,15.40
2023-04-09T06:26:21.497Z,15.38
2023-04-09T06:28:47.895Z,15.37
2023-04-09T06:31:14.341Z,15.47
2023-04-09T06:33:41.247Z,15.55
2023-04-09T06:36:08.080Z,15.59
2023-04-09T06:38:34.555Z,15.65
2023-04-09T06:41:01.355Z,15.90
2023-04-09T06:43:27.896Z,15.85
2023-04-09T06:45:54.297Z,16.08
2023-04-09T06:48:20.782Z,15.59
2023-04-09T06:50:47.330Z,15.61
2023-04-09T06:53:15.018Z,16.15
2023-04-09T06:55:42.015Z,16.37
2023-04-09T06:58:08.478Z,15.89
2023-04-09T07:00:34.931Z,15.47
2023-04-09T07:03:01.642Z,15.93
2023-04-09T07:05:28.225Z,16.25
2023-04-09T07:07:54.672Z,16.39
2023-04-09T07:10:21.088Z,16.53
2023-04-09T07:12:47.567Z,16.04
2023-04-09T07:15:13.972Z,16.07
2023-04-09T07:17:41.014Z,16.43
2023-04-09T07:20:07.737Z,16.51
2023-04-09T07:22:34.095Z,16.47
2023-04-09T07:25:00.676Z,16.75
2023-04-09T07:27:27.811Z,16.72
2023-04-09T07:29:56.026Z,16.75
2023-04-09T07:32:23.182Z,16.69
2023-04-09T07:34:52.740Z,16.62
2023-04-09T07:37:19.545Z,16.62
2023-04-09T07:39:46.848Z,16.66
2023-04-09T07:42:13.719Z,16.86
2023-04-09T07:44:40.864Z,17.08
2023-04-09T07:47:08.005Z,17.40
2023-04-09T07:49:36.222Z,17.60
2023-04-09T07:52:02.632Z,17.33
2023-04-09T07:54:28.996Z,17.46
2023-04-09T07:56:56.311Z,17.38
2023-04-09T07:59:22.872Z,17.33
2023-04-09T08:01:49.335Z,17.39
2023-04-09T08:04:16.258Z,17.22
2023-04-09T08:06:42.736Z,17.53
2023-04-09T08:09:09.323Z,17.71
2023-04-09T08:11:35.955Z,18.18
2023-04-09T08:14:03.631Z,18.58
2023-04-09T08:16:30.440Z,18.27
2023-04-09T08:18:57.132Z,18.09
2023-04-09T08:21:23.466Z,17.64
2023-04-09T08:23:49.999Z,18.38
2023-04-09T08:26:16.332Z,18.81
2023-04-09T08:28:42.874Z,18.57
2023-04-09T08:31:09.423Z,18.46
2023-04-09T08:33:35.989Z,18.34
2023-04-09T08:36:03.465Z,18.47
2023-04-09T08:38:29.898Z,18.55
2023-04-09T08:40:56.266Z,18.34
2023-04-09T08:43:23.653Z,18.57
2023-04-09T08:45:52.228Z,17.77
2023-04-09T08:48:18.694Z,17.10
2023-04-09T08:50:46.127Z,17.28
2023-04-09T08:53:12.840Z,18.06
2023-04-09T08:55:39.160Z,18.76
2023-04-09T08:58:07.457Z,19.25
2023-04-09T09:00:33.786Z,19.43
2023-04-09T09:03:10.822Z,18.67
2023-04-09T09:05:38.626Z,19.12
2023-04-09T09:08:05.543Z,19.50
2023-04-09T09:10:38.485Z,19.60
2023-04-09T09:13:24.175Z,19.71
2023-04-09T09:15:54.058Z,19.65
2023-04-09T09:18:21.022Z,20.28
2023-04-09T09:20:47.491Z,20.55
2023-04-09T09:23:13.842Z,19.77
2023-04-09T09:25:43.388Z,19.00
2023-04-09T09:28:10.685Z,19.07
2023-04-09T09:30:38.661Z,18.63
2023-04-09T09:33:06.372Z,19.38
2023-04-09T09:35:46.892Z,18.26
2023-04-09T09:38:13.230Z,19.12
2023-04-09T09:40:39.532Z,19.89
2023-04-09T09:43:05.879Z,20.44
2023-04-09T09:45:32.195Z,20.48
2023-04-09T09:47:58.583Z,20.10
2023-04-09T09:50:25.504Z,19.69
2023-04-09T09:52:53.757Z,19.81
2023-04-09T09:55:20.184Z,20.15
2023-04-09T09:57:47.167Z,20.01
2023-04-09T10:00:14.110Z,19.74
2023-04-09T10:02:45.013Z,19.84
2023-04-09T10:05:11.407Z,20.08
2023-04-09T10:07:38.600Z,19.87
2023-04-09T10:10:05.754Z,20.35
2023-04-09T10:12:32.058Z,19.50
2023-04-09T10:15:00.443Z,19.95
2023-04-09T10:17:26.973Z,20.39
2023-04-09T10:19:58.715Z,20.49
2023-04-09T10:22:26.063Z,20.58
2023-04-09T10:24:52.950Z,20.54
2023-04-09T10:27:19.231Z,21.28
2023-04-09T10:29:46.198Z,21.64
2023-04-09T10:32:13.008Z,21.70
2023-04-09T10:34:40.183Z,21.93
2023-04-09T10:37:10.341Z,21.57
2023-04-09T10:39:39.332Z,21.38
2023-04-09T10:42:08.890Z,21.63
2023-04-09T10:44:37.970Z,21.46
2023-04-09T10:47:05.951Z,21.05
2023-04-09T10:49:41.672Z,20.37
2023-04-09T10:52:11.994Z,19.53
2023-04-09T10:54:40.106Z,19.62
2023-04-09T10:57:19.957Z,20.58
2023-04-09T10:59:50.553Z,20.81
2023-04-09T11:02:24.106Z,20.85
2023-04-09T11:04:50.678Z,21.00
2023-04-09T11:07:17.686Z,20.56
2023-04-09T11:09:44.019Z,21.35
2023-04-09T11:12:11.292Z,21.66
2023-04-09T11:14:37.793Z,22.05
2023-04-09T11:17:04.374Z,21.03
2023-04-09T11:19:34.825Z,20.54
2023-04-09T11:22:04.813Z,20.94
2023-04-09T11:24:43.514Z,19.70
2023-04-09T11:27:10.134Z,19.76
2023-04-09T11:29:36.787Z,19.43
2023-04-09T11:32:05.435Z,20.10
2023-04-09T11:34:32.237Z,19.77
2023-04-09T11:36:59.707Z,20.85
2023-04-09T11:39:26.453Z,21.51
2023-04-09T11:41:53.265Z,20.97
2023-04-09T11:44:21.630Z,20.09
2023-04-09T11:46:49.171Z,20.28
2023-04-09T11:49:17.557Z,19.71
2023-04-09T11:51:44.131Z,19.20
2023-04-09T11:54:12.088Z,20.37
2023-04-09T11:56:38.479Z,20.48
2023-04-09T11:59:04.915Z,20.68
2023-04-09T12:01:34.685Z,21.38
2023-04-09T12:04:01.569Z,21.65
2023-04-09T12:06:28.517Z,21.48
2023-04-09T12:08:58.428Z,21.60
2023-04-09T12:11:29.356Z,21.53
2023-04-09T12:14:03.125Z,21.25
2023-04-09T12:16:35.744Z,20.58
2023-04-09T12:19:03.550Z,20.43
2023-04-09T12:21:54.529Z,20.76
2023-04-09T12:24:23.089Z,21.33
2023-04-09T12:26:49.742Z,21.50
2023-04-09T12:29:18.112Z,21.78
2023-04-09T12:31:45.329Z,22.09
2023-04-09T12:34:12.013Z,22.01
2023-04-09T12:36:39.798Z,22.09
2023-04-09T12:39:06.466Z,22.00
2023-04-09T12:41:32.858Z,21.56
2023-04-09T12:43:59.432Z,22.08
2023-04-09T12:46:27.204Z,22.23
2023-04-09T12:48:53.933Z,22.77
2023-04-09T12:51:20.686Z,21.95
2023-04-09T12:53:47.124Z,22.10
2023-04-09T12:56:13.556Z,22.17
2023-04-09T12:58:39.934Z,22.03
2023-04-09T13:01:06.619Z,22.24
2023-04-09T13:03:33.318Z,22.63
2023-04-09T13:05:59.842Z,22.14
2023-04-09T13:08:26.285Z,22.62
2023-04-09T13:10:52.716Z,22.68
2023-04-09T13:13:19.132Z,22.40
2023-04-09T13:15:46.214Z,22.03
2023-04-09T13:18:13.432Z,22.55
2023-04-09T13:20:40.245Z,22.52
2023-04-09T13:23:06.730Z,22.05
2023-04-09T13:25:33.224Z,22.09
2023-04-09T13:27:59.596Z,22.59
2023-04-09T13:30:26.069Z,22.53
2023-04-09T13:32:52.629Z,22.21
2023-04-09T13:35:19.197Z,21.71
2023-04-09T13:37:45.717Z,22.39
2023-04-09T13:40:12.401Z,22.00
2023-04-09T13:42:38.792Z,22.92
2023-04-09T13:45:05.943Z,22.90
2023-04-09T13:47:32.501Z,23.33
2023-04-09T13:49:58.925Z,22.69
2023-04-09T13:52:26.772Z,22.01
2023-04-09T13:54:56.475Z,21.47
2023-04-09T13:57:22.821Z,21.78
2023-04-09T13:59:49.665Z,21.88
2023-04-09T14:02:18.086Z,21.99
2023-04-09T14:04:44.728Z,22.20
2023-04-09T14:07:11.112Z,22.56
2023-04-09T14:09:37.457Z,22.33
2023-04-09T14:12:03.783Z,22.49
2023-04-09T14:14:30.192Z,23.02
2023-04-09T14:16:56.526Z,22.69
2023-04-09T14:19:22.933Z,22.68
2023-04-09T14:21:49.273Z,22.45
2023-04-09T14:24:15.642Z,22.59
2023-04-09T14:26:41.949Z,23.22
2023-04-09T14:29:08.257Z,23.39
2023-04-09T14:31:34.607Z,23.46
2023-04-09T14:34:00.940Z,23.47
2023-04-09T14:36:27.378Z,23.60
2023-04-09T14:38:56.139Z,24.35
2023-04-09T14:41:23.822Z,24.40
2023-04-09T14:43:50.308Z,24.41
2023-04-09T14:46:17.133Z,24.42
2023-04-09T14:48:43.499Z,24.45
2023-04-09T14:51:10.192Z,23.87
2023-04-09T14:53:37.117Z,23.31
2023-04-09T14:56:04.380Z,23.01
2023-04-09T14:58:31.022Z,23.40
2023-04-09T15:00:57.597Z,23.79
2023-04-09T15:03:24.101Z,24.01
2023-04-09T15:05:50.776Z,24.03
2023-04-09T15:08:17.071Z,23.97
2023-04-09T15:10:43.486Z,23.70
2023-04-09T15:13:09.791Z,23.52
2023-04-09T15:15:36.629Z,23.94
2023-04-09T15:18:06.050Z,23.85
2023-04-09T15:20:39.198Z,23.34
2023-04-09T15:23:05.719Z,23.66
2023-04-09T15:25:32.765Z,23.79
2023-04-09T15:27:59.101Z,23.33
2023-04-09T15:30:25.610Z,23.14
2023-04-09T15:32:52.765Z,23.27
2023-04-09T15:35:24.911Z,23.29
2023-04-09T15:37:51.520Z,23.66
2023-04-09T15:40:18.406Z,23.45
2023-04-09T15:42:44.865Z,23.26
2023-04-09T15:45:11.232Z,22.99
2023-04-09T15:47:37.940Z,23.27
2023-04-09T15:50:04.565Z,23.34
2023-04-09T15:52:31.127Z,22.98
2023-04-09T15:54:57.438Z,22.37
2023-04-09T15:57:23.875Z,22.09
2023-04-09T15:59:50.141Z,22.00
2023-04-09T16:02:16.625Z,21.38
2023-04-09T16:04:43.009Z,21.49
2023-04-09T16:07:09.921Z,21.50
2023-04-09T16:09:36.327Z,21.31
2023-04-09T16:12:02.845Z,21.70
2023-04-09T16:14:30.068Z,21.83
2023-04-09T16:16:56.463Z,22.07
2023-04-09T16:19:24.501Z,22.36
2023-04-09T16:21:50.861Z,22.38
2023-04-09T16:24:17.171Z,22.27
2023-04-09T16:26:44.000Z,22.44
2023-04-09T16:29:10.430Z,22.57
2023-04-09T16:31:37.427Z,22.11
2023-04-09T16:34:03.793Z,21.77
2023-04-09T16:36:31.493Z,21.87
2023-04-09T16:38:58.016Z,21.28
2023-04-09T16:41:24.334Z,21.11
2023-04-09T16:43:51.199Z,21.46
2023-04-09T16:46:18.007Z,21.29
2023-04-09T16:48:44.368Z,21.22
2023-04-09T16:51:10.704Z,21.11
2023-04-09T16:53:38.823Z,20.70
2023-04-09T16:56:06.551Z,20.56
2023-04-09T16:58:32.964Z,20.29
2023-04-09T17:00:59.348Z,20.18
2023-04-09T17:03:25.782Z,20.32
2023-04-09T17:05:52.274Z,20.25
2023-04-09T17:08:21.463Z,20.23
2023-04-09T17:10:47.767Z,20.16
2023-04-09T17:13:14.092Z,20.09
2023-04-09T17:15:41.454Z,19.99
2023-04-09T17:18:07.872Z,19.92
2023-04-09T17:20:34.272Z,19.65
2023-04-09T17:23:00.816Z,19.77
2023-04-09T17:25:27.322Z,19.56
2023-04-09T17:27:54.460Z,19.66
2023-04-09T17:30:21.223Z,19.36
2023-04-09T17:32:47.843Z,19.27
2023-04-09T17:35:14.281Z,19.48
2023-04-09T17:37:40.715Z,19.09
2023-04-09T17:40:07.736Z,19.06
2023-04-09T17:42:34.162Z,19.05
2023-04-09T17:45:00.811Z,19.10
2023-04-09T17:47:27.311Z,18.98
2023-04-09T17:49:53.850Z,18.68
2023-04-09T17:52:20.475Z,18.65
2023-04-09T17:54:47.197Z,18.62
2023-04-09T17:57:13.532Z,18.51
2023-04-09T17:59:40.821Z,18.56
2023-04-09T18:02:07.281Z,18.30
2023-04-09T18:04:34.039Z,18.28
2023-04-09T18:07:00.652Z,18.40
2023-04-09T18:09:26.965Z,18.47
2023-04-09T18:11:56.296Z,18.24
2023-04-09T18:14:22.935Z,18.18
2023-04-09T18:16:49.234Z,18.31
2023-04-09T18:19:15.633Z,18.08
2023-04-09T18:21:41.958Z,18.30
2023-04-09T18:24:08.460Z,18.33
2023-04-09T18:26:34.810Z,18.38
2023-04-09T18:29:01.846Z,18.44
2023-04-09T18:31:28.404Z,18.54
2023-04-09T18:33:55.040Z,18.53
2023-04-09T18:36:21.345Z,18.47
2023-04-09T18:38:47.627Z,18.20
2023-04-09T18:41:16.915Z,18.31
2023-04-09T18:43:43.401Z,18.21
2023-04-09T18:46:09.718Z,18.17
2023-04-09T18:48:36.239Z,18.17
2023-04-09T18:51:03.081Z,18.17
2023-04-09T18:53:29.364Z,17.90
2023-04-09T18:55:55.800Z,17.97
2023-04-09T18:58:22.676Z,18.04
2023-04-09T19:00:51.599Z,17.93
2023-04-09T19:03:19.412Z,17.90
2023-04-09T19:05:46.066Z,17.80
2023-04-09T19:08:12.899Z,17.76
2023-04-09T19:10:39.764Z,17.85
2023-04-09T19:13:06.085Z,17.65
2023-04-09T19:15:32.373Z,17.77
2023-04-09T19:17:58.728Z,17.70
2023-04-09T19:20:25.198Z,17.71
2023-04-09T19:22:53.282Z,17.66
2023-04-09T19:25:19.815Z,17.65
2023-04-09T19:27:46.192Z,17.51
2023-04-09T19:30:12.617Z,17.41
2023-04-09T19:32:39.086Z,17.08
2023-04-09T19:35:06.884Z,16.88
2023-04-09T19:37:33.422Z,16.84
2023-04-09T19:40:04.690Z,16.71
2023-04-09T19:42:32.862Z,16.58
2023-04-09T19:45:00.115Z,16.45
2023-04-09T19:47:27.339Z,16.38
2023-04-09T19:49:54.049Z,16.32
2023-04-09T19:52:20.840Z,16.33
2023-04-09T19:54:47.463Z,16.25
2023-04-09T19:57:15.114Z,16.26
2023-04-09T19:59:41.384Z,16.03
2023-04-09T20:02:07.848Z,15.91
2023-04-09T20:04:34.270Z,15.96
2023-04-09T20:07:00.765Z,15.84
2023-04-09T20:09:29.020Z,15.79
2023-04-09T20:11:55.364Z,15.67
2023-04-09T20:14:21.660Z,15.70
2023-04-09T20:16:48.130Z,15.68
2023-04-09T20:19:14.504Z,15.72
2023-04-09T20:21:40.895Z,15.70
2023-04-09T20:24:07.256Z,15.58
2023-04-09T20:26:33.689Z,15.40
2023-04-09T20:28:59.995Z,15.35
2023-04-09T20:31:28.041Z,15.12
2023-04-09T20:33:54.405Z,15.12
2023-04-09T20:36:20.767Z,15.15
2023-04-09T20:38:47.795Z,15.15
2023-04-09T20:41:14.124Z,15.25
2023-04-09T20:43:40.471Z,15.10
2023-04-09T20:46:06.790Z,15.07
2023-04-09T20:48:33.155Z,15.12
2023-04-09T20:50:59.542Z,15.14
2023-04-09T20:53:25.953Z,15.07
2023-04-09T20:55:53.254Z,14.94
2023-04-09T20:58:19.827Z,14.78
2023-04-09T21:00:46.221Z,14.86
2023-04-09T21:03:13.289Z,14.81
2023-04-09T21:05:39.706Z,14.80
2023-04-09T21:08:06.143Z,14.91
2023-04-09T21:10:32.426Z,14.82
2023-04-09T21:12:58.763Z,14.73
2023-04-09T21:15:25.166Z,14.67
2023-04-09T21:17:52.049Z,14.70
2023-04-09T21:20:19.352Z,14.90
2023-04-09T21:22:45.671Z,15.06
2023-04-09T21:25:14.588Z,15.00
2023-04-09T21:27:41.611Z,14.99
2023-04-09T21:30:08.205Z,14.92
2023-04-09T21:32:34.760Z,14.53
2023-04-09T21:35:01.362Z,14.63
2023-04-09T21:37:29.172Z,14.47
2023-04-09T21:39:55.746Z,14.48
2023-04-09T21:42:22.404Z,14.51
2023-04-09T21:44:48.729Z,14.54
2023-04-09T21:47:15.061Z,14.60
2023-04-09T21:49:41.348Z,14.67
2023-04-09T21:52:14.195Z,14.73
2023-04-09T21:54:41.308Z,14.54
2023-04-09T21:57:07.998Z,14.37
2023-04-09T21:59:36.263Z,14.47
2023-04-09T22:02:05.773Z,14.39
2023-04-09T22:04:32.627Z,14.48
2023-04-09T22:06:58.999Z,14.47
2023-04-09T22:09:25.313Z,14.40
2023-04-09T22:11:52.828Z,14.31
2023-04-09T22:14:19.798Z,14.44
2023-04-09T22:16:46.716Z,14.48
2023-04-09T22:19:14.112Z,14.52
2023-04-09T22:21:41.375Z,14.29
2023-04-09T22:24:07.788Z,14.29
2023-04-09T22:26:34.276Z,14.30
2023-04-09T22:29:04.347Z,14.29
2023-04-09T22:31:32.178Z,14.16
2023-04-09T22:34:06.855Z,14.15
2023-04-09T22:36:40.206Z,13.99
2023-04-09T22:39:06.622Z,14.01
2023-04-09T22:41:32.918Z,13.99
2023-04-09T22:43:59.539Z,13.96
2023-04-09T22:46:26.612Z,14.00
2023-04-09T22:48:53.219Z,13.79
2023-04-09T22:51:19.544Z,13.66
2023-04-09T22:53:46.365Z,13.76
2023-04-09T22:56:12.743Z,13.79
2023-04-09T22:58:39.184Z,13.68
2023-04-09T23:01:05.907Z,13.64
2023-04-09T23:03:32.529Z,13.68
2023-04-09T23:05:58.857Z,13.63
2023-04-09T23:08:25.304Z,13.67
2023-04-09T23:10:51.634Z,13.72
2023-04-09T23:13:18.206Z,13.85
2023-04-09T23:15:44.553Z,13.68
2023-04-09T23:18:11.113Z,13.59
2023-04-09T23:20:37.425Z,13.51
2023-04-09T23:23:03.751Z,13.54
2023-04-09T23:25:30.160Z,13.50
2023-04-09T23:27:56.472Z,13.48
2023-04-09T23:30:23.630Z,13.46
2023-04-09T23:32:51.589Z,13.33
2023-04-09T23:35:18.136Z,13.30
2023-04-09T23:37:44.430Z,13.30
2023-04-09T23:40:11.189Z,13.33
2023-04-09T23:42:37.586Z,13.42
2023-04-09T23:45:06.119Z,13.40
2023-04-09T23:47:33.373Z,13.43
2023-04-09T23:50:04.616Z,13.53
2023-04-09T23:52:31.974Z,13.43
2023-04-09T23:54:59.897Z,13.51
2023-04-09T23:57:27.341Z,13.51
2023-04-09T23:59:53.821Z,13.42
